sensor_id;sensor_type;location;lat;lon;timestamp;P1;durP1;ratioP1;P2;durP2;ratioP2
50012;SDS011;35901;48.694;9.476;2023-04-24T00:00:03;1.50;;;1.10;;
50012;SDS011;35901;48.694;9.476;2023-04-24T00:02:34;1.20;;;1.10;;
50012;SDS011;35901;48.694;9.476;2023-04-24T00:05:03;1.23;;;1.20;;
50012;SDS011;35901;48.694;9.476;2023-04-24T00:07:30;1.73;;;1.30;;
50012;SDS011;35901;48.694;9.476;2023-04-24T00:09:56;1.67;;;1.57;;
50012;SDS011;35901;48.694;9.476;2023-04-24T00:12:22;2.23;;;1.37;;
50012;SDS011;35901;48.694;9.476;2023-04-24T00:14:47;1.50;;;1.40;;
50012;SDS011;35901;48.694;9.476;2023-04-24T00:17:13;1.37;;;1.30;;
50012;SDS011;35901;48.694;9.476;2023-04-24T00:19:38;1.33;;;1.23;;
50012;SDS011;35901;48.694;9.476;2023-04-24T00:22:04;1.57;;;1.30;;
50012;SDS011;35901;48.694;9.476;2023-04-24T00:24:30;1.50;;;1.40;;
50012;SDS011;35901;48.694;9.476;2023-04-24T00:26:56;1.93;;;1.33;;
50012;SDS011;35901;48.694;9.476;2023-04-24T00:29:22;1.23;;;1.10;;
50012;SDS011;35901;48.694;9.476;2023-04-24T00:31:47;2.83;;;1.30;;
50012;SDS011;35901;48.694;9.476;2023-04-24T00:34:13;1.10;;;1.07;;
50012;SDS011;35901;48.694;9.476;2023-04-24T00:36:39;1.77;;;1.40;;
50012;SDS011;35901;48.694;9.476;2023-04-24T00:39:05;1.13;;;1.10;;
50012;SDS011;35901;48.694;9.476;2023-04-24T00:41:33;1.27;;;1.00;;
50012;SDS011;35901;48.694;9.476;2023-04-24T00:44:00;1.47;;;1.37;;
50012;SDS011;35901;48.694;9.476;2023-04-24T00:46:25;1.20;;;1.20;;
50012;SDS011;35901;48.694;9.476;2023-04-24T00:48:51;1.37;;;1.20;;
50012;SDS011;35901;48.694;9.476;2023-04-24T00:51:17;1.10;;;1.10;;
50012;SDS011;35901;48.694;9.476;2023-04-24T00:53:43;1.30;;;1.20;;
50012;SDS011;35901;48.694;9.476;2023-04-24T00:56:09;2.40;;;1.53;;
50012;SDS011;35901;48.694;9.476;2023-04-24T00:58:35;2.37;;;1.27;;
50012;SDS011;35901;48.694;9.476;2023-04-24T01:01:00;1.10;;;1.00;;
50012;SDS011;35901;48.694;9.476;2023-04-24T01:03:31;1.47;;;1.00;;
50012;SDS011;35901;48.694;9.476;2023-04-24T01:05:57;2.50;;;1.10;;
50012;SDS011;35901;48.694;9.476;2023-04-24T01:08:23;1.30;;;1.20;;
50012;SDS011;35901;48.694;9.476;2023-04-24T01:10:51;1.40;;;1.30;;
50012;SDS011;35901;48.694;9.476;2023-04-24T01:13:18;2.00;;;1.30;;
50012;SDS011;35901;48.694;9.476;2023-04-24T01:15:45;1.10;;;1.00;;
50012;SDS011;35901;48.694;9.476;2023-04-24T01:18:11;1.53;;;1.10;;
50012;SDS011;35901;48.694;9.476;2023-04-24T01:20:39;1.30;;;1.20;;
50012;SDS011;35901;48.694;9.476;2023-04-24T01:23:06;1.10;;;1.10;;
50012;SDS011;35901;48.694;9.476;2023-04-24T01:25:32;1.50;;;1.20;;
50012;SDS011;35901;48.694;9.476;2023-04-24T01:27:58;2.27;;;1.17;;
50012;SDS011;35901;48.694;9.476;2023-04-24T01:30:25;1.30;;;1.20;;
50012;SDS011;35901;48.694;9.476;2023-04-24T01:32:51;1.00;;;1.00;;
50012;SDS011;35901;48.694;9.476;2023-04-24T01:35:18;1.30;;;1.13;;
50012;SDS011;35901;48.694;9.476;2023-04-24T01:37:44;1.23;;;1.07;;
50012;SDS011;35901;48.694;9.476;2023-04-24T01:40:10;1.63;;;1.20;;
50012;SDS011;35901;48.694;9.476;2023-04-24T01:42:35;2.30;;;1.00;;
50012;SDS011;35901;48.694;9.476;2023-04-24T01:45:02;1.17;;;1.10;;
50012;SDS011;35901;48.694;9.476;2023-04-24T01:47:30;2.47;;;1.00;;
50012;SDS011;35901;48.694;9.476;2023-04-24T01:49:56;2.33;;;1.20;;
50012;SDS011;35901;48.694;9.476;2023-04-24T01:52:22;1.20;;;1.10;;
50012;SDS011;35901;48.694;9.476;2023-04-24T01:54:48;2.23;;;1.37;;
50012;SDS011;35901;48.694;9.476;2023-04-24T01:57:14;1.30;;;1.17;;
50012;SDS011;35901;48.694;9.476;2023-04-24T01:59:40;1.40;;;1.30;;
50012;SDS011;35901;48.694;9.476;2023-04-24T02:02:07;1.20;;;1.10;;
50012;SDS011;35901;48.694;9.476;2023-04-24T02:04:34;0.97;;;0.97;;
50012;SDS011;35901;48.694;9.476;2023-04-24T02:07:00;1.27;;;1.17;;
50012;SDS011;35901;48.694;9.476;2023-04-24T02:09:25;1.40;;;1.30;;
50012;SDS011;35901;48.694;9.476;2023-04-24T02:11:51;2.37;;;1.30;;
50012;SDS011;35901;48.694;9.476;2023-04-24T02:14:17;1.50;;;1.10;;
50012;SDS011;35901;48.694;9.476;2023-04-24T02:16:42;1.37;;;1.27;;
50012;SDS011;35901;48.694;9.476;2023-04-24T02:19:09;1.87;;;1.13;;
50012;SDS011;35901;48.694;9.476;2023-04-24T02:21:35;1.60;;;1.20;;
50012;SDS011;35901;48.694;9.476;2023-04-24T02:24:01;1.53;;;1.40;;
50012;SDS011;35901;48.694;9.476;2023-04-24T02:26:26;1.57;;;1.20;;
50012;SDS011;35901;48.694;9.476;2023-04-24T02:28:52;1.43;;;1.10;;
50012;SDS011;35901;48.694;9.476;2023-04-24T02:31:19;2.63;;;1.20;;
50012;SDS011;35901;48.694;9.476;2023-04-24T02:33:46;1.37;;;1.10;;
50012;SDS011;35901;48.694;9.476;2023-04-24T02:36:12;1.63;;;1.30;;
50012;SDS011;35901;48.694;9.476;2023-04-24T02:38:38;1.20;;;1.10;;
50012;SDS011;35901;48.694;9.476;2023-04-24T02:41:04;2.00;;;1.20;;
50012;SDS011;35901;48.694;9.476;2023-04-24T02:43:31;1.17;;;1.10;;
50012;SDS011;35901;48.694;9.476;2023-04-24T02:45:58;1.23;;;1.13;;
50012;SDS011;35901;48.694;9.476;2023-04-24T02:48:25;2.87;;;1.17;;
50012;SDS011;35901;48.694;9.476;2023-04-24T02:50:50;1.30;;;1.10;;
50012;SDS011;35901;48.694;9.476;2023-04-24T02:53:16;1.87;;;1.10;;
50012;SDS011;35901;48.694;9.476;2023-04-24T02:55:42;1.20;;;1.10;;
50012;SDS011;35901;48.694;9.476;2023-04-24T02:58:08;1.60;;;0.97;;
50012;SDS011;35901;48.694;9.476;2023-04-24T03:00:34;1.73;;;1.10;;
50012;SDS011;35901;48.694;9.476;2023-04-24T03:02:59;2.23;;;1.10;;
50012;SDS011;35901;48.694;9.476;2023-04-24T03:05:25;1.30;;;1.20;;
50012;SDS011;35901;48.694;9.476;2023-04-24T03:07:52;1.30;;;1.20;;
50012;SDS011;35901;48.694;9.476;2023-04-24T03:10:20;0.97;;;0.97;;
50012;SDS011;35901;48.694;9.476;2023-04-24T03:12:47;1.30;;;0.90;;
50012;SDS011;35901;48.694;9.476;2023-04-24T03:15:13;1.17;;;1.00;;
50012;SDS011;35901;48.694;9.476;2023-04-24T03:17:39;1.00;;;1.00;;
50012;SDS011;35901;48.694;9.476;2023-04-24T03:20:06;2.40;;;1.00;;
50012;SDS011;35901;48.694;9.476;2023-04-24T03:22:34;2.23;;;1.10;;
50012;SDS011;35901;48.694;9.476;2023-04-24T03:25:01;1.60;;;1.00;;
50012;SDS011;35901;48.694;9.476;2023-04-24T03:27:27;1.10;;;1.00;;
50012;SDS011;35901;48.694;9.476;2023-04-24T03:30:01;1.33;;;1.20;;
50012;SDS011;35901;48.694;9.476;2023-04-24T03:32:42;1.83;;;1.00;;
50012;SDS011;35901;48.694;9.476;2023-04-24T03:35:10;1.70;;;0.90;;
50012;SDS011;35901;48.694;9.476;2023-04-24T03:37:36;1.70;;;1.00;;
50012;SDS011;35901;48.694;9.476;2023-04-24T03:40:34;1.20;;;1.10;;
50012;SDS011;35901;48.694;9.476;2023-04-24T03:43:03;1.10;;;1.10;;
50012;SDS011;35901;48.694;9.476;2023-04-24T03:45:29;0.90;;;0.90;;
50012;SDS011;35901;48.694;9.476;2023-04-24T03:47:57;1.67;;;1.00;;
50012;SDS011;35901;48.694;9.476;2023-04-24T03:50:24;1.33;;;1.10;;
50012;SDS011;35901;48.694;9.476;2023-04-24T03:52:51;1.10;;;1.10;;
50012;SDS011;35901;48.694;9.476;2023-04-24T03:55:32;5.03;;;1.40;;
50012;SDS011;35901;48.694;9.476;2023-04-24T03:57:58;1.00;;;1.00;;
50012;SDS011;35901;48.694;9.476;2023-04-24T04:00:24;1.53;;;1.20;;
50012;SDS011;35901;48.694;9.476;2023-04-24T04:03:01;1.40;;;1.30;;
50012;SDS011;35901;48.694;9.476;2023-04-24T04:05:27;1.40;;;1.30;;
50012;SDS011;35901;48.694;9.476;2023-04-24T04:07:53;1.87;;;1.40;;
50012;SDS011;35901;48.694;9.476;2023-04-24T04:10:19;1.70;;;1.20;;
50012;SDS011;35901;48.694;9.476;2023-04-24T04:12:44;1.27;;;1.17;;
50012;SDS011;35901;48.694;9.476;2023-04-24T04:15:10;1.97;;;1.40;;
50012;SDS011;35901;48.694;9.476;2023-04-24T04:17:36;2.17;;;1.53;;
50012;SDS011;35901;48.694;9.476;2023-04-24T04:20:05;2.90;;;1.90;;
50012;SDS011;35901;48.694;9.476;2023-04-24T04:22:34;3.23;;;1.60;;
50012;SDS011;35901;48.694;9.476;2023-04-24T04:25:06;1.70;;;1.60;;
50012;SDS011;35901;48.694;9.476;2023-04-24T04:27:33;2.00;;;1.67;;
50012;SDS011;35901;48.694;9.476;2023-04-24T04:30:07;2.17;;;1.67;;
50012;SDS011;35901;48.694;9.476;2023-04-24T04:32:41;1.43;;;1.30;;
50012;SDS011;35901;48.694;9.476;2023-04-24T04:35:07;2.73;;;1.70;;
50012;SDS011;35901;48.694;9.476;2023-04-24T04:37:33;2.47;;;1.40;;
50012;SDS011;35901;48.694;9.476;2023-04-24T04:40:17;2.20;;;1.43;;
50012;SDS011;35901;48.694;9.476;2023-04-24T04:42:50;1.47;;;1.20;;
50012;SDS011;35901;48.694;9.476;2023-04-24T04:45:18;3.60;;;1.50;;
50012;SDS011;35901;48.694;9.476;2023-04-24T04:48:05;2.53;;;1.30;;
50012;SDS011;35901;48.694;9.476;2023-04-24T04:50:35;3.07;;;1.50;;
50012;SDS011;35901;48.694;9.476;2023-04-24T04:53:05;2.70;;;1.40;;
50012;SDS011;35901;48.694;9.476;2023-04-24T04:55:36;3.20;;;1.60;;
50012;SDS011;35901;48.694;9.476;2023-04-24T04:58:14;3.50;;;1.53;;
50012;SDS011;35901;48.694;9.476;2023-04-24T05:00:40;4.03;;;1.77;;
50012;SDS011;35901;48.694;9.476;2023-04-24T05:03:15;1.10;;;1.10;;
50012;SDS011;35901;48.694;9.476;2023-04-24T05:05:40;1.57;;;1.47;;
50012;SDS011;35901;48.694;9.476;2023-04-24T05:08:10;2.80;;;1.73;;
50012;SDS011;35901;48.694;9.476;2023-04-24T05:10:35;1.73;;;1.60;;
50012;SDS011;35901;48.694;9.476;2023-04-24T05:13:03;1.60;;;1.50;;
50012;SDS011;35901;48.694;9.476;2023-04-24T05:15:30;1.87;;;1.73;;
50012;SDS011;35901;48.694;9.476;2023-04-24T05:17:57;2.00;;;1.80;;
50012;SDS011;35901;48.694;9.476;2023-04-24T05:20:23;1.90;;;1.67;;
50012;SDS011;35901;48.694;9.476;2023-04-24T05:22:49;2.80;;;2.30;;
50012;SDS011;35901;48.694;9.476;2023-04-24T05:25:16;2.50;;;2.30;;
50012;SDS011;35901;48.694;9.476;2023-04-24T05:27:53;3.43;;;3.00;;
50012;SDS011;35901;48.694;9.476;2023-04-24T05:30:19;3.93;;;3.63;;
50012;SDS011;35901;48.694;9.476;2023-04-24T05:32:45;3.50;;;3.20;;
50012;SDS011;35901;48.694;9.476;2023-04-24T05:35:12;2.57;;;2.37;;
50012;SDS011;35901;48.694;9.476;2023-04-24T05:37:37;3.13;;;2.23;;
50012;SDS011;35901;48.694;9.476;2023-04-24T05:40:03;2.33;;;2.10;;
50012;SDS011;35901;48.694;9.476;2023-04-24T05:42:30;2.27;;;2.00;;
50012;SDS011;35901;48.694;9.476;2023-04-24T05:44:56;2.00;;;1.90;;
50012;SDS011;35901;48.694;9.476;2023-04-24T05:47:22;2.30;;;2.10;;
50012;SDS011;35901;48.694;9.476;2023-04-24T05:49:49;2.57;;;2.03;;
50012;SDS011;35901;48.694;9.476;2023-04-24T05:52:15;1.83;;;1.73;;
50012;SDS011;35901;48.694;9.476;2023-04-24T05:54:41;2.23;;;2.00;;
50012;SDS011;35901;48.694;9.476;2023-04-24T05:57:09;2.10;;;2.00;;
50012;SDS011;35901;48.694;9.476;2023-04-24T05:59:55;3.57;;;2.17;;
50012;SDS011;35901;48.694;9.476;2023-04-24T06:02:21;2.77;;;2.23;;
50012;SDS011;35901;48.694;9.476;2023-04-24T06:04:47;2.37;;;2.17;;
50012;SDS011;35901;48.694;9.476;2023-04-24T06:07:13;4.07;;;2.20;;
50012;SDS011;35901;48.694;9.476;2023-04-24T06:09:41;2.83;;;2.60;;
50012;SDS011;35901;48.694;9.476;2023-04-24T06:12:07;2.60;;;2.40;;
50012;SDS011;35901;48.694;9.476;2023-04-24T06:14:48;2.70;;;2.50;;
50012;SDS011;35901;48.694;9.476;2023-04-24T06:17:18;5.10;;;3.40;;
50012;SDS011;35901;48.694;9.476;2023-04-24T06:19:45;4.73;;;4.23;;
50012;SDS011;35901;48.694;9.476;2023-04-24T06:22:10;4.70;;;4.30;;
50012;SDS011;35901;48.694;9.476;2023-04-24T06:24:36;3.90;;;3.60;;
50012;SDS011;35901;48.694;9.476;2023-04-24T06:27:02;3.13;;;2.93;;
50012;SDS011;35901;48.694;9.476;2023-04-24T06:29:28;2.70;;;2.50;;
50012;SDS011;35901;48.694;9.476;2023-04-24T06:31:53;3.00;;;2.63;;
50012;SDS011;35901;48.694;9.476;2023-04-24T06:34:19;3.60;;;3.30;;
50012;SDS011;35901;48.694;9.476;2023-04-24T06:36:46;3.10;;;2.90;;
50012;SDS011;35901;48.694;9.476;2023-04-24T06:39:12;3.63;;;2.70;;
50012;SDS011;35901;48.694;9.476;2023-04-24T06:41:37;3.53;;;2.67;;
50012;SDS011;35901;48.694;9.476;2023-04-24T06:44:03;2.50;;;2.30;;
50012;SDS011;35901;48.694;9.476;2023-04-24T06:46:28;2.20;;;2.10;;
50012;SDS011;35901;48.694;9.476;2023-04-24T06:48:54;2.20;;;2.10;;
50012;SDS011;35901;48.694;9.476;2023-04-24T06:51:22;2.67;;;1.90;;
50012;SDS011;35901;48.694;9.476;2023-04-24T06:53:48;1.67;;;1.57;;
50012;SDS011;35901;48.694;9.476;2023-04-24T06:56:15;1.70;;;1.60;;
50012;SDS011;35901;48.694;9.476;2023-04-24T06:58:40;1.77;;;1.60;;
50012;SDS011;35901;48.694;9.476;2023-04-24T07:01:07;1.60;;;1.50;;
50012;SDS011;35901;48.694;9.476;2023-04-24T07:03:32;1.80;;;1.67;;
50012;SDS011;35901;48.694;9.476;2023-04-24T07:05:58;1.67;;;1.50;;
50012;SDS011;35901;48.694;9.476;2023-04-24T07:08:24;1.50;;;1.40;;
50012;SDS011;35901;48.694;9.476;2023-04-24T07:10:50;1.40;;;1.30;;
50012;SDS011;35901;48.694;9.476;2023-04-24T07:13:16;2.23;;;1.40;;
50012;SDS011;35901;48.694;9.476;2023-04-24T07:15:42;1.90;;;1.50;;
50012;SDS011;35901;48.694;9.476;2023-04-24T07:18:08;1.33;;;1.27;;
50012;SDS011;35901;48.694;9.476;2023-04-24T07:20:34;1.47;;;1.30;;
50012;SDS011;35901;48.694;9.476;2023-04-24T07:23:00;2.20;;;1.40;;
50012;SDS011;35901;48.694;9.476;2023-04-24T07:25:25;1.47;;;1.33;;
50012;SDS011;35901;48.694;9.476;2023-04-24T07:27:52;1.77;;;1.67;;
50012;SDS011;35901;48.694;9.476;2023-04-24T07:30:18;3.50;;;1.60;;
50012;SDS011;35901;48.694;9.476;2023-04-24T07:32:43;2.20;;;1.80;;
50012;SDS011;35901;48.694;9.476;2023-04-24T07:35:09;1.50;;;1.40;;
50012;SDS011;35901;48.694;9.476;2023-04-24T07:37:35;1.67;;;1.40;;
50012;SDS011;35901;48.694;9.476;2023-04-24T07:40:01;1.67;;;1.57;;
50012;SDS011;35901;48.694;9.476;2023-04-24T07:42:27;2.07;;;1.90;;
50012;SDS011;35901;48.694;9.476;2023-04-24T07:44:55;1.87;;;1.60;;
50012;SDS011;35901;48.694;9.476;2023-04-24T07:47:21;2.93;;;1.97;;
50012;SDS011;35901;48.694;9.476;2023-04-24T07:49:46;2.80;;;1.70;;
50012;SDS011;35901;48.694;9.476;2023-04-24T07:52:12;1.70;;;1.60;;
50012;SDS011;35901;48.694;9.476;2023-04-24T07:54:38;6.37;;;2.37;;
50012;SDS011;35901;48.694;9.476;2023-04-24T07:57:03;2.37;;;1.90;;
50012;SDS011;35901;48.694;9.476;2023-04-24T07:59:31;3.20;;;2.00;;
50012;SDS011;35901;48.694;9.476;2023-04-24T08:01:56;2.00;;;1.77;;
50012;SDS011;35901;48.694;9.476;2023-04-24T08:04:22;2.90;;;2.00;;
50012;SDS011;35901;48.694;9.476;2023-04-24T08:06:48;1.97;;;1.80;;
50012;SDS011;35901;48.694;9.476;2023-04-24T08:09:13;4.37;;;2.83;;
50012;SDS011;35901;48.694;9.476;2023-04-24T08:11:39;2.60;;;2.40;;
50012;SDS011;35901;48.694;9.476;2023-04-24T08:14:05;2.37;;;2.17;;
50012;SDS011;35901;48.694;9.476;2023-04-24T08:16:32;2.37;;;2.00;;
50012;SDS011;35901;48.694;9.476;2023-04-24T08:18:58;1.80;;;1.70;;
50012;SDS011;35901;48.694;9.476;2023-04-24T08:21:23;2.70;;;1.77;;
50012;SDS011;35901;48.694;9.476;2023-04-24T08:23:51;2.60;;;1.50;;
50012;SDS011;35901;48.694;9.476;2023-04-24T08:26:16;1.67;;;1.57;;
50012;SDS011;35901;48.694;9.476;2023-04-24T08:28:42;2.40;;;1.50;;
50012;SDS011;35901;48.694;9.476;2023-04-24T08:31:08;1.43;;;1.33;;
50012;SDS011;35901;48.694;9.476;2023-04-24T08:33:33;1.53;;;1.40;;
50012;SDS011;35901;48.694;9.476;2023-04-24T08:36:05;1.50;;;1.40;;
50012;SDS011;35901;48.694;9.476;2023-04-24T08:38:35;2.07;;;1.53;;
50012;SDS011;35901;48.694;9.476;2023-04-24T08:41:01;1.67;;;1.57;;
50012;SDS011;35901;48.694;9.476;2023-04-24T08:43:27;1.70;;;1.60;;
50012;SDS011;35901;48.694;9.476;2023-04-24T08:45:54;2.07;;;1.40;;
50012;SDS011;35901;48.694;9.476;2023-04-24T08:48:21;1.60;;;1.50;;
50012;SDS011;35901;48.694;9.476;2023-04-24T08:50:48;2.00;;;1.50;;
50012;SDS011;35901;48.694;9.476;2023-04-24T08:53:16;1.60;;;1.50;;
50012;SDS011;35901;48.694;9.476;2023-04-24T08:55:43;1.53;;;1.43;;
50012;SDS011;35901;48.694;9.476;2023-04-24T08:58:11;1.30;;;1.20;;
50012;SDS011;35901;48.694;9.476;2023-04-24T09:00:39;1.50;;;1.40;;
50012;SDS011;35901;48.694;9.476;2023-04-24T09:03:05;1.60;;;1.50;;
50012;SDS011;35901;48.694;9.476;2023-04-24T09:05:31;2.40;;;1.50;;
50012;SDS011;35901;48.694;9.476;2023-04-24T09:08:00;2.40;;;1.40;;
50012;SDS011;35901;48.694;9.476;2023-04-24T09:10:29;1.63;;;1.53;;
50012;SDS011;35901;48.694;9.476;2023-04-24T09:12:56;1.47;;;1.37;;
50012;SDS011;35901;48.694;9.476;2023-04-24T09:15:24;1.43;;;1.33;;
50012;SDS011;35901;48.694;9.476;2023-04-24T09:17:49;1.40;;;1.30;;
50012;SDS011;35901;48.694;9.476;2023-04-24T09:20:15;1.60;;;1.50;;
50012;SDS011;35901;48.694;9.476;2023-04-24T09:22:41;1.50;;;1.40;;
50012;SDS011;35901;48.694;9.476;2023-04-24T09:25:08;1.90;;;1.30;;
50012;SDS011;35901;48.694;9.476;2023-04-24T09:27:36;1.33;;;1.30;;
50012;SDS011;35901;48.694;9.476;2023-04-24T09:30:08;1.77;;;1.53;;
50012;SDS011;35901;48.694;9.476;2023-04-24T09:32:34;2.67;;;1.50;;
50012;SDS011;35901;48.694;9.476;2023-04-24T09:37:39;1.20;;;1.20;;
50012;SDS011;35901;48.694;9.476;2023-04-24T09:40:17;1.93;;;1.40;;
50012;SDS011;35901;48.694;9.476;2023-04-24T09:42:45;3.30;;;1.47;;
50012;SDS011;35901;48.694;9.476;2023-04-24T09:45:11;3.97;;;1.70;;
50012;SDS011;35901;48.694;9.476;2023-04-24T09:47:37;1.70;;;1.60;;
50012;SDS011;35901;48.694;9.476;2023-04-24T09:50:10;3.33;;;1.80;;
50012;SDS011;35901;48.694;9.476;2023-04-24T09:52:39;1.60;;;1.50;;
50012;SDS011;35901;48.694;9.476;2023-04-24T09:55:13;2.07;;;1.57;;
50012;SDS011;35901;48.694;9.476;2023-04-24T09:57:54;1.40;;;1.30;;
50012;SDS011;35901;48.694;9.476;2023-04-24T10:00:21;1.50;;;1.40;;
50012;SDS011;35901;48.694;9.476;2023-04-24T10:02:54;1.70;;;1.30;;
50012;SDS011;35901;48.694;9.476;2023-04-24T10:05:24;2.60;;;1.27;;
50012;SDS011;35901;48.694;9.476;2023-04-24T10:08:03;1.37;;;1.10;;
50012;SDS011;35901;48.694;9.476;2023-04-24T10:10:29;1.23;;;1.23;;
50012;SDS011;35901;48.694;9.476;2023-04-24T10:12:56;1.27;;;1.17;;
50012;SDS011;35901;48.694;9.476;2023-04-24T10:15:22;1.23;;;1.07;;
50012;SDS011;35901;48.694;9.476;2023-04-24T10:17:49;2.33;;;1.20;;
50012;SDS011;35901;48.694;9.476;2023-04-24T10:20:19;1.73;;;1.00;;
50012;SDS011;35901;48.694;9.476;2023-04-24T10:22:50;1.40;;;1.30;;
50012;SDS011;35901;48.694;9.476;2023-04-24T10:25:19;2.03;;;1.30;;
50012;SDS011;35901;48.694;9.476;2023-04-24T10:27:45;2.77;;;1.20;;
50012;SDS011;35901;48.694;9.476;2023-04-24T10:30:12;1.10;;;1.03;;
50012;SDS011;35901;48.694;9.476;2023-04-24T10:32:39;1.67;;;1.30;;
50012;SDS011;35901;48.694;9.476;2023-04-24T10:35:06;1.00;;;1.00;;
50012;SDS011;35901;48.694;9.476;2023-04-24T10:37:36;1.67;;;1.40;;
50012;SDS011;35901;48.694;9.476;2023-04-24T10:40:05;1.03;;;0.97;;
50012;SDS011;35901;48.694;9.476;2023-04-24T10:42:32;2.17;;;1.03;;
50012;SDS011;35901;48.694;9.476;2023-04-24T10:44:58;1.37;;;1.27;;
50012;SDS011;35901;48.694;9.476;2023-04-24T10:47:27;1.40;;;1.30;;
50012;SDS011;35901;48.694;9.476;2023-04-24T10:49:52;2.27;;;1.10;;
50012;SDS011;35901;48.694;9.476;2023-04-24T10:52:18;2.37;;;1.10;;
50012;SDS011;35901;48.694;9.476;2023-04-24T10:54:46;1.07;;;1.07;;
50012;SDS011;35901;48.694;9.476;2023-04-24T10:59:50;1.27;;;1.00;;
50012;SDS011;35901;48.694;9.476;2023-04-24T11:02:37;0.90;;;0.90;;
50012;SDS011;35901;48.694;9.476;2023-04-24T11:05:12;0.90;;;0.90;;
50012;SDS011;35901;48.694;9.476;2023-04-24T11:10:45;0.90;;;0.90;;
50012;SDS011;35901;48.694;9.476;2023-04-24T11:13:20;1.07;;;1.00;;
50012;SDS011;35901;48.694;9.476;2023-04-24T11:16:11;1.03;;;1.00;;
50012;SDS011;35901;48.694;9.476;2023-04-24T11:18:51;1.00;;;1.00;;
50012;SDS011;35901;48.694;9.476;2023-04-24T11:21:24;0.90;;;0.90;;
50012;SDS011;35901;48.694;9.476;2023-04-24T11:23:51;1.87;;;1.17;;
50012;SDS011;35901;48.694;9.476;2023-04-24T11:26:18;2.03;;;1.17;;
50012;SDS011;35901;48.694;9.476;2023-04-24T11:28:49;1.53;;;1.20;;
50012;SDS011;35901;48.694;9.476;2023-04-24T11:34:13;1.10;;;1.00;;
50012;SDS011;35901;48.694;9.476;2023-04-24T11:36:39;1.23;;;1.13;;
50012;SDS011;35901;48.694;9.476;2023-04-24T11:39:08;1.00;;;1.00;;
50012;SDS011;35901;48.694;9.476;2023-04-24T11:41:35;1.07;;;1.07;;
50012;SDS011;35901;48.694;9.476;2023-04-24T11:44:01;1.00;;;1.00;;
50012;SDS011;35901;48.694;9.476;2023-04-24T11:46:29;1.13;;;1.00;;
50012;SDS011;35901;48.694;9.476;2023-04-24T11:48:56;3.33;;;1.30;;
50012;SDS011;35901;48.694;9.476;2023-04-24T11:51:23;1.40;;;1.30;;
50012;SDS011;35901;48.694;9.476;2023-04-24T11:53:53;1.10;;;1.10;;
50012;SDS011;35901;48.694;9.476;2023-04-24T11:56:23;1.77;;;1.20;;
50012;SDS011;35901;48.694;9.476;2023-04-24T11:58:51;1.50;;;1.40;;
50012;SDS011;35901;48.694;9.476;2023-04-24T12:01:21;1.70;;;1.47;;
50012;SDS011;35901;48.694;9.476;2023-04-24T12:03:50;2.07;;;1.93;;
50012;SDS011;35901;48.694;9.476;2023-04-24T12:06:16;10.43;;;7.67;;
50012;SDS011;35901;48.694;9.476;2023-04-24T12:08:42;3.67;;;3.27;;
50012;SDS011;35901;48.694;9.476;2023-04-24T12:11:11;2.67;;;1.93;;
50012;SDS011;35901;48.694;9.476;2023-04-24T12:13:40;10.13;;;7.47;;
50012;SDS011;35901;48.694;9.476;2023-04-24T12:16:06;2.30;;;2.07;;
50012;SDS011;35901;48.694;9.476;2023-04-24T12:18:32;2.23;;;2.03;;
50012;SDS011;35901;48.694;9.476;2023-04-24T12:23:53;1.20;;;1.10;;
50012;SDS011;35901;48.694;9.476;2023-04-24T12:26:19;1.40;;;1.30;;
50012;SDS011;35901;48.694;9.476;2023-04-24T12:28:48;1.20;;;1.10;;
50012;SDS011;35901;48.694;9.476;2023-04-24T12:31:15;1.53;;;1.30;;
50012;SDS011;35901;48.694;9.476;2023-04-24T12:33:41;1.30;;;1.20;;
50012;SDS011;35901;48.694;9.476;2023-04-24T12:36:09;1.50;;;1.40;;
50012;SDS011;35901;48.694;9.476;2023-04-24T12:38:37;1.13;;;1.10;;
50012;SDS011;35901;48.694;9.476;2023-04-24T12:41:10;1.23;;;1.13;;
50012;SDS011;35901;48.694;9.476;2023-04-24T12:43:38;1.17;;;1.07;;
50012;SDS011;35901;48.694;9.476;2023-04-24T12:46:04;1.27;;;1.17;;
50012;SDS011;35901;48.694;9.476;2023-04-24T12:48:30;1.10;;;1.10;;
50012;SDS011;35901;48.694;9.476;2023-04-24T12:50:59;1.10;;;1.10;;
50012;SDS011;35901;48.694;9.476;2023-04-24T12:53:28;1.60;;;1.50;;
50012;SDS011;35901;48.694;9.476;2023-04-24T12:55:57;1.30;;;1.30;;
50012;SDS011;35901;48.694;9.476;2023-04-24T12:58:23;2.30;;;1.50;;
50012;SDS011;35901;48.694;9.476;2023-04-24T13:03:17;1.20;;;1.20;;
50012;SDS011;35901;48.694;9.476;2023-04-24T13:05:43;1.50;;;1.40;;
50012;SDS011;35901;48.694;9.476;2023-04-24T13:08:09;1.17;;;1.17;;
50012;SDS011;35901;48.694;9.476;2023-04-24T13:10:35;1.10;;;1.10;;
50012;SDS011;35901;48.694;9.476;2023-04-24T13:13:01;1.87;;;1.13;;
50012;SDS011;35901;48.694;9.476;2023-04-24T13:15:27;1.40;;;1.30;;
50012;SDS011;35901;48.694;9.476;2023-04-24T13:17:53;1.20;;;1.20;;
50012;SDS011;35901;48.694;9.476;2023-04-24T13:20:18;1.20;;;1.20;;
50012;SDS011;35901;48.694;9.476;2023-04-24T13:22:44;1.40;;;1.30;;
50012;SDS011;35901;48.694;9.476;2023-04-24T13:25:10;1.50;;;1.30;;
50012;SDS011;35901;48.694;9.476;2023-04-24T13:27:37;1.40;;;1.30;;
50012;SDS011;35901;48.694;9.476;2023-04-24T13:30:04;1.27;;;1.27;;
50012;SDS011;35901;48.694;9.476;2023-04-24T13:32:30;1.40;;;1.30;;
50012;SDS011;35901;48.694;9.476;2023-04-24T13:34:56;1.17;;;1.10;;
50012;SDS011;35901;48.694;9.476;2023-04-24T13:37:21;1.30;;;1.20;;
50012;SDS011;35901;48.694;9.476;2023-04-24T13:39:47;1.30;;;1.20;;
50012;SDS011;35901;48.694;9.476;2023-04-24T13:42:13;1.70;;;1.60;;
50012;SDS011;35901;48.694;9.476;2023-04-24T13:44:39;1.33;;;1.23;;
50012;SDS011;35901;48.694;9.476;2023-04-24T13:47:05;1.47;;;1.30;;
50012;SDS011;35901;48.694;9.476;2023-04-24T13:49:31;1.47;;;1.37;;
50012;SDS011;35901;48.694;9.476;2023-04-24T13:51:56;2.20;;;1.30;;
50012;SDS011;35901;48.694;9.476;2023-04-24T13:54:22;1.47;;;1.37;;
50012;SDS011;35901;48.694;9.476;2023-04-24T13:56:50;1.47;;;1.37;;
50012;SDS011;35901;48.694;9.476;2023-04-24T13:59:16;1.60;;;1.50;;
50012;SDS011;35901;48.694;9.476;2023-04-24T14:01:43;2.83;;;1.40;;
50012;SDS011;35901;48.694;9.476;2023-04-24T14:04:10;1.53;;;1.43;;
50012;SDS011;35901;48.694;9.476;2023-04-24T14:06:36;1.33;;;1.30;;
50012;SDS011;35901;48.694;9.476;2023-04-24T14:09:01;1.50;;;1.40;;
50012;SDS011;35901;48.694;9.476;2023-04-24T14:11:27;1.60;;;1.50;;
50012;SDS011;35901;48.694;9.476;2023-04-24T14:13:54;1.70;;;1.60;;
50012;SDS011;35901;48.694;9.476;2023-04-24T14:16:21;1.47;;;1.47;;
50012;SDS011;35901;48.694;9.476;2023-04-24T14:18:47;2.13;;;1.40;;
50012;SDS011;35901;48.694;9.476;2023-04-24T14:21:12;2.03;;;1.67;;
50012;SDS011;35901;48.694;9.476;2023-04-24T14:23:38;2.00;;;1.60;;
50012;SDS011;35901;48.694;9.476;2023-04-24T14:26:04;3.47;;;1.50;;
50012;SDS011;35901;48.694;9.476;2023-04-24T14:28:29;1.97;;;1.50;;
50012;SDS011;35901;48.694;9.476;2023-04-24T14:30:55;1.60;;;1.50;;
50012;SDS011;35901;48.694;9.476;2023-04-24T14:33:21;2.20;;;1.80;;
50012;SDS011;35901;48.694;9.476;2023-04-24T14:35:46;2.10;;;1.87;;
50012;SDS011;35901;48.694;9.476;2023-04-24T14:38:12;1.63;;;1.53;;
50012;SDS011;35901;48.694;9.476;2023-04-24T14:40:38;2.00;;;1.80;;
50012;SDS011;35901;48.694;9.476;2023-04-24T14:43:05;2.13;;;1.80;;
50012;SDS011;35901;48.694;9.476;2023-04-24T14:45:32;1.83;;;1.60;;
50012;SDS011;35901;48.694;9.476;2023-04-24T14:47:57;2.00;;;1.40;;
50012;SDS011;35901;48.694;9.476;2023-04-24T14:50:23;2.27;;;1.50;;
50012;SDS011;35901;48.694;9.476;2023-04-24T14:52:52;1.63;;;1.53;;
50012;SDS011;35901;48.694;9.476;2023-04-24T14:55:19;1.50;;;1.40;;
50012;SDS011;35901;48.694;9.476;2023-04-24T14:57:45;1.77;;;1.67;;
50012;SDS011;35901;48.694;9.476;2023-04-24T15:00:17;1.80;;;1.70;;
50012;SDS011;35901;48.694;9.476;2023-04-24T15:02:45;3.10;;;1.77;;
50012;SDS011;35901;48.694;9.476;2023-04-24T15:05:10;1.67;;;1.57;;